aviador You're here:

EBCV Decoded Metar

CHIEVRES in BELGIUM
Report Time2017-09-25 03:55:00
UTC Time2017-09-25 04:12:52
Flight Rules lifr LIFR
WindVRB at 02 kt
Visibility1200 m
Phenomena:Mist
Clouds:N/A
Expected CloudBase > 400 ft AGL from Temp-Dew spread
CeilingNone
Temp08°C (ISA -7)
Dew Point07°C (93% RH)
AAT6.6°C
QNH1020 hPa
Density Alt-686 ft
Elevation207 ft
Report Wrong Elevation
Raw Report
METAR EBCV 250355Z AUTO VRB02KT 1200 BR NCD 08/07 Q1020 AMB=

Extra information for EBCV:More info

Metar Taf Metar & Taf Last 4 Metars F.Rules Stats Wind Profile Meteogram Temp Stats Airport Information Weather charts Add Link Nearby VenuesMetar ALERT Operation Metar Decoded Social comments